Time;durP1;ratioP1;P1;durP2;ratioP2;P2;SDS_P1;SDS_P2;PMS_P1;PMS_P2;Temp;Humidity;BMP_temperature;BMP_pressure;BME280_temperature;BME280_humidity;BME280_pressure;Samples;Min_cycle;Max_cycle;Signal;HPM_P1;HPM_P2
2021/12/07 00:04:18;;;;;;;15.37;4.40;;;-0.60;99.90;;;;;;10509256;28;20237;-80
2021/12/07 00:09:44;;;;;;;32.77;7.27;;;-0.60;99.90;;;;;;10524421;28;20191;-79
2021/12/07 00:15:07;;;;;;;31.43;11.97;;;-0.60;99.90;;;;;;10494743;28;20202;-80
2021/12/07 00:20:30;;;;;;;19.53;9.17;;;-0.60;99.90;;;;;;10506267;28;20217;-80
2021/12/07 00:25:52;;;;;;;11.93;6.07;;;-0.50;99.90;;;;;;10506055;28;20210;-79
2021/12/07 00:31:25;;;;;;;9.77;4.97;;;-0.50;99.90;;;;;;10491024;28;20445;-79
2021/12/07 00:36:49;;;;;;;15.40;8.37;;;-0.50;99.90;;;;;;10494704;28;20205;-80
2021/12/07 00:42:10;;;;;;;13.30;8.03;;;-0.50;99.90;;;;;;10450082;28;20276;-80
2021/12/07 00:47:33;;;;;;;15.37;6.93;;;-0.60;99.90;;;;;;10435073;28;20402;-80
2021/12/07 00:52:57;;;;;;;17.97;9.50;;;-0.60;99.90;;;;;;10463433;28;20277;-81
2021/12/07 00:58:23;;;;;;;19.60;10.63;;;-0.70;99.90;;;;;;10479846;28;20208;-79
2021/12/07 01:03:49;;;;;;;19.50;10.67;;;-0.80;99.90;;;;;;10462705;28;20570;-79
2021/12/07 01:26:02;;;;;;;15.73;8.67;;;-0.90;99.90;;;;;;10462126;28;20195;-78
2021/12/07 01:31:34;;;;;;;18.27;8.70;;;-1.00;99.90;;;;;;10478335;28;20204;-78
2021/12/07 02:04:56;;;;;;;15.27;10.10;;;-1.00;99.90;;;;;;10504991;28;20225;-80
2021/12/07 02:10:25;;;;;;;19.30;12.83;;;-1.10;99.90;;;;;;10505074;28;20200;-79
2021/12/07 02:15:53;;;;;;;20.93;13.20;;;-1.10;99.90;;;;;;10490342;28;20200;-80
2021/12/07 02:21:26;;;;;;;24.03;14.13;;;-1.10;99.90;;;;;;10473254;28;20506;-79
2021/12/07 02:26:58;;;;;;;22.63;13.83;;;-1.20;99.90;;;;;;10504454;28;20197;-79
2021/12/07 02:32:20;;;;;;;23.23;14.23;;;-1.30;99.90;;;;;;10487837;28;20203;-79
2021/12/07 02:37:42;;;;;;;22.60;14.93;;;-1.40;99.90;;;;;;10490662;28;20585;-79
2021/12/07 02:43:04;;;;;;;23.27;15.30;;;-1.50;99.90;;;;;;10485033;28;20394;-79
2021/12/07 02:48:27;;;;;;;25.90;14.57;;;-1.40;99.90;;;;;;10474420;28;20197;-79
2021/12/07 02:53:54;;;;;;;26.93;15.80;;;-1.40;99.90;;;;;;10473452;28;20236;-79
2021/12/07 02:59:18;;;;;;;23.47;14.90;;;-1.40;99.90;;;;;;10512081;28;20200;-80
2021/12/07 03:04:54;;;;;;;25.57;15.33;;;-1.40;99.90;;;;;;10512030;28;20569;-79
2021/12/07 03:27:14;;;;;;;21.90;12.97;;;-1.60;99.90;;;;;;10510973;28;20202;-79
2021/12/07 03:32:38;;;;;;;17.47;11.13;;;-1.60;99.90;;;;;;10510729;28;20527;-79
2021/12/07 03:38:02;;;;;;;17.03;11.30;;;-1.60;99.90;;;;;;10523587;28;20387;-79
2021/12/07 03:43:24;;;;;;;22.77;12.80;;;-1.60;99.90;;;;;;10493279;28;20224;-78
2021/12/07 03:48:49;;;;;;;18.17;11.63;;;-1.60;99.90;;;;;;10510634;28;20211;-79
2021/12/07 03:54:11;;;;;;;18.00;11.37;;;-1.50;99.90;;;;;;10496125;28;20204;-80
2021/12/07 03:59:34;;;;;;;15.37;9.83;;;-1.60;99.90;;;;;;10492883;28;20383;-79
2021/12/07 04:05:01;;;;;;;14.23;9.33;;;-1.60;99.90;;;;;;10491811;28;20225;-79
2021/12/07 04:10:25;;;;;;;15.03;9.97;;;-1.70;99.90;;;;;;10495079;28;20196;-80
2021/12/07 04:15:48;;;;;;;15.43;9.57;;;-1.90;99.90;;;;;;10472690;28;20204;-79
2021/12/07 04:21:11;;;;;;;17.80;9.60;;;-1.90;99.90;;;;;;10478568;28;20204;-80
2021/12/07 04:26:34;;;;;;;12.40;7.60;;;-2.00;99.90;;;;;;10491620;28;20221;-79
2021/12/07 04:31:56;;;;;;;13.97;7.17;;;-2.10;99.90;;;;;;10477859;28;20203;-79
2021/12/07 04:37:18;;;;;;;13.57;6.90;;;-2.10;99.90;;;;;;10523032;28;20235;-80
2021/12/07 04:42:41;;;;;;;9.83;6.23;;;-2.30;99.90;;;;;;10499952;28;20416;-78
2021/12/07 04:59:21;;;;;;;14.57;8.03;;;-2.40;99.90;;;;;;10507170;28;20223;-80
2021/12/07 05:04:43;;;;;;;17.77;10.33;;;-2.60;99.90;;;;;;10507093;28;20223;-81
2021/12/07 05:10:18;;;;;;;14.47;9.07;;;-2.60;99.90;;;;;;10506313;28;20198;-79
2021/12/07 05:37:59;;;;;;;13.47;8.67;;;-2.70;99.90;;;;;;10501830;28;20428;-79
2021/12/07 05:43:21;;;;;;;16.67;9.77;;;-2.90;99.90;;;;;;10488553;28;20220;-79
2021/12/07 05:48:43;;;;;;;26.07;11.63;;;-2.80;99.90;;;;;;10505653;28;20477;-79
2021/12/07 05:54:05;;;;;;;28.93;14.00;;;-2.60;99.90;;;;;;10491532;28;20493;-78
2021/12/07 05:59:27;;;;;;;27.50;14.17;;;-2.70;99.90;;;;;;10520328;28;20191;-79
2021/12/07 06:04:49;;;;;;;23.07;12.03;;;-2.70;99.90;;;;;;10501842;28;20298;-79
2021/12/07 06:10:11;;;;;;;39.40;17.33;;;-2.70;99.90;;;;;;10501485;28;20195;-79
2021/12/07 06:15:35;;;;;;;39.87;16.07;;;-2.60;99.90;;;;;;10519667;28;20419;-80
2021/12/07 06:20:57;;;;;;;34.90;17.33;;;-2.70;99.90;;;;;;10490578;28;20217;-79
2021/12/07 06:26:20;;;;;;;50.13;24.10;;;-2.70;99.90;;;;;;10473351;28;20257;-79
2021/12/07 06:31:43;;;;;;;46.33;22.07;;;-2.80;99.90;;;;;;10519588;28;20390;-79
2021/12/07 06:37:06;;;;;;;48.27;25.47;;;-2.90;99.90;;;;;;10487149;28;20254;-78
2021/12/07 06:42:28;;;;;;;50.67;26.93;;;-2.90;99.90;;;;;;10487262;28;20375;-79
2021/12/07 06:47:50;;;;;;;45.67;26.30;;;-3.00;99.90;;;;;;10500780;28;20274;-80
2021/12/07 06:53:12;;;;;;;33.47;18.47;;;-2.90;99.90;;;;;;10473209;28;20240;-79
2021/12/07 06:58:35;;;;;;;46.63;19.50;;;-3.00;99.90;;;;;;10503891;28;20198;-80
2021/12/07 07:03:58;;;;;;;39.00;16.53;;;-3.10;99.90;;;;;;10518538;28;20469;-79
2021/12/07 07:09:20;;;;;;;41.33;16.47;;;-3.00;99.90;;;;;;10517932;28;20205;-79
2021/12/07 07:14:42;;;;;;;45.67;21.13;;;-3.10;99.90;;;;;;10503399;28;20354;-79
2021/12/07 07:20:08;;;;;;;57.07;25.40;;;-3.10;99.90;;;;;;10484105;28;20209;-79
2021/12/07 07:25:30;;;;;;;52.10;26.93;;;-3.10;99.90;;;;;;10489485;28;20249;-79
2021/12/07 07:30:53;;;;;;;51.73;27.07;;;-3.00;99.90;;;;;;10503118;28;20197;-79
2021/12/07 07:36:14;;;;;;;53.47;22.00;;;-3.00;99.90;;;;;;10503158;28;20200;-79
2021/12/07 07:41:37;;;;;;;70.47;26.70;;;-3.10;99.90;;;;;;10490644;28;20597;-79
2021/12/07 07:46:59;;;;;;;92.13;34.43;;;-3.20;99.90;;;;;;10476895;28;20273;-78
2021/12/07 07:52:21;;;;;;;114.53;40.33;;;-3.20;99.90;;;;;;10510150;28;20248;-79
2021/12/07 07:57:46;;;;;;;98.13;33.77;;;-3.30;99.90;;;;;;10492781;28;20199;-79
2021/12/07 08:03:08;;;;;;;82.40;27.57;;;-3.30;99.90;;;;;;10509370;28;20219;-79
2021/12/07 08:08:30;;;;;;;72.60;21.50;;;-3.20;99.90;;;;;;10491580;28;20395;-78
2021/12/07 08:13:52;;;;;;;25.33;10.60;;;-3.20;99.90;;;;;;10491468;28;20209;-78
2021/12/07 08:19:16;;;;;;;55.33;18.03;;;-3.20;99.90;;;;;;10485462;28;20215;-78
2021/12/07 08:24:38;;;;;;;62.23;16.83;;;-3.40;99.90;;;;;;10492911;28;20302;-78
2021/12/07 08:30:01;;;;;;;55.67;16.77;;;-2.90;99.90;;;;;;10517970;28;20206;-79
2021/12/07 08:35:23;;;;;;;37.60;14.60;;;-1.60;99.90;;;;;;10500474;28;20309;-79
2021/12/07 08:40:53;;;;;;;23.90;11.77;;;-0.70;99.90;;;;;;10484990;28;20238;-77
2021/12/07 08:46:16;;;;;;;21.70;10.80;;;-0.70;99.90;;;;;;10451664;28;20318;-76
2021/12/07 08:51:39;;;;;;;21.87;9.87;;;-1.50;99.90;;;;;;10484936;28;20408;-81
2021/12/07 09:02:43;;;;;;;33.33;11.77;;;-2.40;99.90;;;;;;10485436;28;20241;-79
2021/12/07 09:08:05;;;;;;;30.37;11.43;;;-2.60;99.90;;;;;;10497970;28;20202;-81
2021/12/07 09:13:28;;;;;;;48.83;16.70;;;-3.00;99.90;;;;;;10484209;28;20246;-79
2021/12/07 09:18:50;;;;;;;24.40;10.50;;;-2.90;99.90;;;;;;10502209;28;20204;-78
2021/12/07 09:24:13;;;;;;;24.50;10.43;;;-3.00;99.90;;;;;;10516153;28;20223;-79
2021/12/07 09:29:36;;;;;;;48.07;17.40;;;-3.10;99.90;;;;;;10484179;28;20566;-80
2021/12/07 09:34:59;;;;;;;30.13;12.27;;;-3.20;99.90;;;;;;10485415;28;20210;-82
2021/12/07 09:40:24;;;;;;;28.83;13.07;;;-3.20;99.90;;;;;;10470431;28;20243;-80
2021/12/07 09:45:51;;;;;;;19.37;8.70;;;-3.20;99.90;;;;;;10451694;28;20411;-78
2021/12/07 09:51:18;;;;;;;17.20;9.07;;;-3.20;99.90;;;;;;10473671;28;20290;-79
2021/12/07 09:56:41;;;;;;;19.30;11.87;;;-3.10;99.90;;;;;;10455867;28;20313;-85
2021/12/07 10:02:06;;;;;;;19.03;9.37;;;-3.30;99.90;;;;;;10471617;28;20198;-79
2021/12/07 10:07:28;;;;;;;14.23;6.37;;;-3.30;99.90;;;;;;10513663;28;20210;-77
2021/12/07 10:12:51;;;;;;;14.97;7.30;;;-3.10;99.90;;;;;;10498613;28;20199;-84
2021/12/07 10:18:19;;;;;;;17.67;8.50;;;-3.10;99.90;;;;;;10484447;28;20203;-86
2021/12/07 10:24:01;;;;;;;20.20;9.93;;;-3.20;99.90;;;;;;10470629;28;20541;-79
2021/12/07 10:29:26;;;;;;;26.27;11.60;;;-3.10;99.90;;;;;;10468270;28;20223;-77
2021/12/07 10:34:47;;;;;;;39.83;18.07;;;-3.10;99.90;;;;;;10496359;28;20226;-80
2021/12/07 10:40:12;;;;;;;44.47;17.63;;;-3.10;99.90;;;;;;10463805;28;20235;-79
2021/12/07 10:45:34;;;;;;;22.77;10.80;;;-2.90;99.90;;;;;;10493350;28;20530;-77
2021/12/07 10:50:58;;;;;;;20.50;10.47;;;-2.90;99.90;;;;;;10496264;28;20204;-77
2021/12/07 10:56:35;;;;;;;23.13;9.87;;;-2.80;99.90;;;;;;10468338;28;20208;-78
2021/12/07 11:01:58;;;;;;;27.73;12.50;;;-2.60;99.90;;;;;;10482479;28;20222;-78
2021/12/07 11:07:23;;;;;;;13.57;7.97;;;-2.30;99.90;;;;;;10512138;28;20216;-78
2021/12/07 11:13:18;;;;;;;15.30;9.37;;;-1.20;99.90;;;;;;10499352;28;20205;-78
2021/12/07 11:18:45;;;;;;;24.17;9.83;;;-0.30;99.90;;;;;;10490095;28;20498;-81
2021/12/07 11:24:07;;;;;;;16.67;8.50;;;0.40;99.90;;;;;;10506119;28;20256;-79
2021/12/07 11:29:42;;;;;;;18.90;8.93;;;0.70;97.90;;;;;;10488440;28;20200;-79
2021/12/07 11:35:14;;;;;;;21.70;10.07;;;0.00;97.60;;;;;;10470500;28;20281;-80
2021/12/07 11:40:38;;;;;;;18.00;8.07;;;-0.50;99.30;;;;;;10519377;28;20243;-80
2021/12/07 11:46:00;;;;;;;15.27;6.93;;;-0.80;99.80;;;;;;10505676;28;20225;-78
2021/12/07 11:51:23;;;;;;;18.20;8.17;;;-0.80;99.10;;;;;;10519972;28;20199;-78
2021/12/07 11:56:46;;;;;;;33.00;13.23;;;-1.00;99.80;;;;;;10519803;28;20207;-79
2021/12/07 12:02:08;;;;;;;19.60;9.03;;;-1.20;99.90;;;;;;10487311;28;20205;-82
2021/12/07 12:07:31;;;;;;;39.00;17.43;;;-1.20;99.90;;;;;;10467756;28;20463;-77
2021/12/07 12:13:14;;;;;;;22.27;11.90;;;-1.30;99.90;;;;;;10507809;28;20201;-83
2021/12/07 12:19:12;;;;;;;23.70;12.97;;;-1.50;99.90;;;;;;10486867;28;20200;-77
2021/12/07 12:24:47;;;;;;;12.27;6.80;;;-1.60;99.90;;;;;;10483347;28;20244;-77
2021/12/07 12:30:30;;;;;;;18.20;8.50;;;-1.80;99.90;;;;;;10486140;28;20212;-78
2021/12/07 12:35:58;;;;;;;21.87;9.03;;;-2.00;99.90;;;;;;10483257;28;20521;-83
2021/12/07 12:41:21;;;;;;;17.73;8.83;;;-2.10;99.90;;;;;;10472894;28;20242;-77
2021/12/07 12:46:43;;;;;;;18.67;9.10;;;-2.10;99.90;;;;;;10518104;28;20478;-77
2021/12/07 12:52:06;;;;;;;27.43;11.73;;;-2.20;99.90;;;;;;10518179;28;20204;-78
2021/12/07 12:57:29;;;;;;;28.57;11.43;;;-2.20;99.90;;;;;;10467430;28;20571;-79
2021/12/07 13:02:53;;;;;;;16.07;8.73;;;-2.20;99.90;;;;;;10498836;28;20506;-78
2021/12/07 13:08:17;;;;;;;16.37;8.50;;;-2.30;99.90;;;;;;10516383;28;20274;-77
2021/12/07 13:13:47;;;;;;;14.93;7.70;;;-2.40;99.90;;;;;;10498714;28;20204;-77
2021/12/07 13:19:10;;;;;;;23.80;12.77;;;-2.50;99.90;;;;;;10516031;28;20216;-78
2021/12/07 13:24:38;;;;;;;14.57;8.37;;;-2.50;99.90;;;;;;10516645;28;20438;-79
2021/12/07 13:30:00;;;;;;;26.07;11.83;;;-2.70;99.90;;;;;;10479782;28;20203;-79
2021/12/07 13:35:30;;;;;;;41.30;26.30;;;-2.70;99.90;;;;;;10500856;28;20630;-80
2021/12/07 13:41:13;;;;;;;37.03;22.80;;;-2.70;99.90;;;;;;10499755;28;20277;-79
2021/12/07 13:46:35;;;;;;;36.83;17.80;;;-2.80;99.90;;;;;;10483518;28;20249;-79
2021/12/07 13:51:57;;;;;;;34.93;17.47;;;-2.90;99.90;;;;;;10496303;28;20436;-80
2021/12/07 13:57:22;;;;;;;62.63;27.53;;;-2.90;99.90;;;;;;10515328;28;20200;-79
2021/12/07 14:03:09;;;;;;;100.17;39.37;;;-2.90;99.90;;;;;;10485897;28;20208;-77
2021/12/07 14:08:31;;;;;;;79.63;38.67;;;-3.00;99.90;;;;;;10482327;28;20234;-77
2021/12/07 14:13:53;;;;;;;89.57;38.37;;;-2.90;99.90;;;;;;10515057;28;20211;-78
2021/12/07 14:19:15;;;;;;;90.23;43.00;;;-3.00;99.90;;;;;;10497239;28;20208;-83
2021/12/07 14:24:37;;;;;;;161.63;62.17;;;-3.00;99.90;;;;;;10466407;28;20238;-79
2021/12/07 14:30:01;;;;;;;190.03;74.13;;;-3.10;99.90;;;;;;10500150;28;20223;-77
2021/12/07 14:35:23;;;;;;;232.37;80.33;;;-3.50;99.90;;;;;;10482142;28;20207;-77
2021/12/07 14:40:46;;;;;;;278.37;85.60;;;-3.50;99.90;;;;;;10472505;28;20292;-86
2021/12/07 14:46:15;;;;;;;213.63;69.53;;;-3.60;99.90;;;;;;10478090;28;20244;-77
2021/12/07 14:51:38;;;;;;;220.43;63.67;;;-3.70;99.90;;;;;;10508250;28;20203;-81
2021/12/07 14:57:00;;;;;;;315.73;94.60;;;-3.80;99.90;;;;;;10504748;28;20242;-89
2021/12/07 15:02:22;;;;;;;180.60;68.80;;;-3.90;99.90;;;;;;10477190;28;20203;-82
2021/12/07 15:07:44;;;;;;;160.57;65.10;;;-4.00;99.90;;;;;;10493783;28;20335;-92
2021/12/07 15:13:09;;;;;;;151.33;61.97;;;-4.10;99.90;;;;;;10486548;28;20208;-83
2021/12/07 15:18:39;;;;;;;75.43;36.63;;;-4.10;99.90;;;;;;10489797;28;20215;-78
2021/12/07 15:24:11;;;;;;;52.77;25.23;;;-4.10;99.90;;;;;;10471385;28;20249;-78
2021/12/07 15:29:35;;;;;;;75.60;30.00;;;-4.20;99.90;;;;;;10490172;28;20490;-78
2021/12/07 15:34:58;;;;;;;109.80;42.00;;;-4.30;99.90;;;;;;10489118;28;20212;-76
2021/12/07 15:40:21;;;;;;;120.83;47.67;;;-4.40;99.90;;;;;;10488470;28;20238;-81
2021/12/07 15:45:45;;;;;;;222.97;74.60;;;-4.40;99.90;;;;;;10488105;28;20594;-76
2021/12/07 15:51:07;;;;;;;185.10;66.17;;;-4.50;99.90;;;;;;10471307;28;20260;-77
2021/12/07 15:56:29;;;;;;;154.30;61.77;;;-4.50;99.90;;;;;;10504614;28;20203;-75
2021/12/07 16:01:51;;;;;;;173.10;67.00;;;-4.60;99.90;;;;;;10518180;28;20200;-75
2021/12/07 16:07:23;;;;;;;164.10;60.20;;;-4.60;99.90;;;;;;10488596;28;20226;-85
2021/12/07 16:13:00;;;;;;;133.50;56.50;;;-4.70;99.90;;;;;;10478876;28;20210;-79
2021/12/07 16:18:24;;;;;;;161.33;67.03;;;-4.80;99.90;;;;;;10488356;28;20206;-78
2021/12/07 16:23:53;;;;;;;169.13;66.63;;;-4.80;99.90;;;;;;10491611;28;20218;-77
2021/12/07 16:29:16;;;;;;;182.77;68.17;;;-4.80;99.90;;;;;;10508460;28;20203;-77
2021/12/07 16:34:40;;;;;;;180.70;71.70;;;-4.90;99.90;;;;;;10491382;28;20206;-77
2021/12/07 16:40:08;;;;;;;185.57;74.40;;;-5.00;99.90;;;;;;10501735;28;20240;-77
2021/12/07 16:45:38;;;;;;;221.73;84.50;;;-5.00;99.90;;;;;;10507614;28;20514;-77
2021/12/07 16:51:03;;;;;;;243.97;94.83;;;-5.00;99.90;;;;;;10502251;28;20195;-77
2021/12/07 16:56:27;;;;;;;248.80;97.63;;;-5.00;99.90;;;;;;10490786;28;20201;-77
2021/12/07 17:01:52;;;;;;;281.13;104.23;;;-5.10;99.90;;;;;;10507573;28;20211;-78
2021/12/07 17:07:15;;;;;;;236.90;87.07;;;-5.10;99.90;;;;;;10489673;28;20229;-78
2021/12/07 17:12:37;;;;;;;250.93;103.63;;;-5.20;99.90;;;;;;10521156;28;20275;-77
2021/12/07 17:18:00;;;;;;;257.47;107.73;;;-5.20;99.90;;;;;;10473334;28;20553;-77
2021/12/07 17:23:22;;;;;;;249.80;101.37;;;-5.20;99.90;;;;;;10506571;28;20244;-77
2021/12/07 17:28:45;;;;;;;203.07;83.47;;;-5.20;99.90;;;;;;10492647;28;20273;-77
2021/12/07 17:34:08;;;;;;;171.13;74.30;;;-5.20;99.90;;;;;;10506164;28;20220;-77
2021/12/07 17:39:31;;;;;;;162.73;67.63;;;-5.20;99.90;;;;;;10486428;28;20529;-77
2021/12/07 17:44:53;;;;;;;168.67;71.33;;;-5.20;99.90;;;;;;10473966;28;20277;-77
2021/12/07 17:50:16;;;;;;;239.33;95.77;;;-5.20;99.90;;;;;;10471584;28;20547;-77
2021/12/07 17:55:40;;;;;;;221.30;87.13;;;-5.30;99.90;;;;;;10505261;28;20205;-77
2021/12/07 18:01:03;;;;;;;224.73;87.83;;;-5.30;99.90;;;;;;10520177;28;20187;-76
2021/12/07 18:06:25;;;;;;;206.60;86.67;;;-5.30;99.90;;;;;;10504386;28;20264;-79
2021/12/07 18:11:49;;;;;;;191.13;82.70;;;-5.30;99.90;;;;;;10501481;28;20571;-80
2021/12/07 18:17:11;;;;;;;161.93;68.57;;;-5.30;99.90;;;;;;10491079;28;20203;-76
2021/12/07 18:22:39;;;;;;;137.70;56.37;;;-5.30;99.90;;;;;;10487122;28;20377;-77
2021/12/07 18:28:01;;;;;;;140.97;57.80;;;;;;;;;;10482197;28;20592;-77
2021/12/07 18:33:28;;;;;;;182.20;73.60;;;-5.40;99.90;;;;;;10487655;28;20568;-77
2021/12/07 18:38:51;;;;;;;205.30;76.13;;;-5.30;99.90;;;;;;10503643;28;20251;-78
2021/12/07 18:44:13;;;;;;;226.23;77.57;;;-5.20;99.90;;;;;;10487230;28;20222;-78
2021/12/07 18:49:36;;;;;;;197.03;68.27;;;-5.10;99.90;;;;;;10501180;28;20277;-77
2021/12/07 18:54:58;;;;;;;148.93;53.53;;;-5.10;99.90;;;;;;10489951;28;20242;-77
2021/12/07 19:00:23;;;;;;;116.80;46.93;;;-5.00;99.90;;;;;;10503989;28;20201;-77
2021/12/07 19:05:45;;;;;;;102.53;41.93;;;-4.90;99.90;;;;;;10484381;28;20229;-77
2021/12/07 19:11:08;;;;;;;57.73;29.03;;;-4.80;99.90;;;;;;10503084;28;20199;-80
2021/12/07 19:16:30;;;;;;;56.40;27.53;;;-4.80;99.90;;;;;;10504092;28;20507;-79
2021/12/07 19:21:52;;;;;;;57.33;29.17;;;-4.70;99.90;;;;;;10503604;28;20194;-80
2021/12/07 19:27:14;;;;;;;51.80;26.83;;;-4.60;99.90;;;;;;10484012;28;20229;-80
2021/12/07 19:32:36;;;;;;;58.70;28.53;;;-4.60;99.90;;;;;;10500352;28;20514;-79
2021/12/07 19:38:00;;;;;;;48.50;28.03;;;-4.60;99.90;;;;;;10506321;28;20278;-80
2021/12/07 19:43:23;;;;;;;47.80;26.83;;;-4.60;99.90;;;;;;10488017;28;20194;-78
2021/12/07 19:48:46;;;;;;;72.83;34.83;;;-4.70;99.90;;;;;;10493998;28;20208;-80
2021/12/07 19:54:12;;;;;;;58.63;28.53;;;-4.60;99.90;;;;;;10509975;28;20199;-78
2021/12/07 19:59:44;;;;;;;63.17;30.37;;;-4.60;99.90;;;;;;10507025;28;20571;-80
2021/12/07 20:05:11;;;;;;;57.57;28.53;;;-4.70;99.90;;;;;;10509470;28;20380;-79
2021/12/07 20:10:34;;;;;;;53.33;27.83;;;-4.60;99.90;;;;;;10492759;28;20210;-79
2021/12/07 20:16:03;;;;;;;56.00;30.03;;;-4.60;99.90;;;;;;10505361;28;20274;-79
2021/12/07 20:21:29;;;;;;;55.10;29.00;;;-4.50;99.90;;;;;;10509122;28;20204;-78
2021/12/07 20:26:51;;;;;;;56.90;29.33;;;-4.40;99.90;;;;;;10508799;28;20231;-79
2021/12/07 20:32:13;;;;;;;63.17;30.47;;;-4.40;99.90;;;;;;10491757;28;20247;-80
2021/12/07 20:37:36;;;;;;;57.70;28.73;;;-4.30;99.90;;;;;;10490216;28;20241;-79
2021/12/07 20:43:02;;;;;;;65.33;31.07;;;-4.30;99.90;;;;;;10477023;28;20200;-79
2021/12/07 20:48:25;;;;;;;58.70;28.67;;;-4.30;99.90;;;;;;10504119;28;20230;-79
2021/12/07 20:53:48;;;;;;;48.63;26.73;;;-4.40;99.90;;;;;;10507339;28;20232;-79
2021/12/07 20:59:15;;;;;;;51.90;25.83;;;-4.40;99.90;;;;;;10507806;28;20205;-81
2021/12/07 21:04:36;;;;;;;54.83;25.83;;;-4.30;99.90;;;;;;10493361;28;20215;-78
2021/12/07 21:09:58;;;;;;;44.80;24.27;;;-4.40;99.90;;;;;;10487021;28;20228;-79
2021/12/07 21:15:25;;;;;;;40.63;23.83;;;-4.40;99.90;;;;;;10489458;28;20278;-79
2021/12/07 21:20:50;;;;;;;48.97;25.00;;;-4.40;99.90;;;;;;10503571;28;20198;-79
2021/12/07 21:26:12;;;;;;;41.37;22.97;;;-4.40;99.90;;;;;;10506501;28;20224;-78
2021/12/07 21:31:57;;;;;;;42.03;22.57;;;-4.40;99.90;;;;;;10508828;28;20190;-80
2021/12/07 21:37:19;;;;;;;50.43;25.03;;;-4.30;99.90;;;;;;10489523;28;20571;-80
2021/12/07 21:42:41;;;;;;;49.83;26.30;;;-4.30;99.90;;;;;;10505459;28;20202;-80
2021/12/07 21:48:05;;;;;;;37.53;22.17;;;-4.20;99.90;;;;;;10520456;28;20298;-80
2021/12/07 21:53:27;;;;;;;49.77;25.63;;;-4.10;99.90;;;;;;10488924;28;20248;-78
2021/12/07 21:58:50;;;;;;;65.97;31.27;;;-4.00;99.90;;;;;;10501565;28;20210;-80
2021/12/07 22:04:13;;;;;;;52.00;26.30;;;-4.00;99.90;;;;;;10505112;28;20214;-80
2021/12/07 22:09:35;;;;;;;40.97;22.33;;;-3.90;99.90;;;;;;10502190;28;20213;-80
2021/12/07 22:15:00;;;;;;;46.30;23.40;;;-3.90;99.90;;;;;;10501491;28;20278;-78
2021/12/07 22:20:22;;;;;;;36.57;21.20;;;-3.80;99.90;;;;;;10488193;28;20210;-79
2021/12/07 22:25:45;;;;;;;42.73;23.40;;;-3.80;99.90;;;;;;10487118;28;20220;-78
2021/12/07 22:31:07;;;;;;;46.50;23.77;;;-3.80;99.90;;;;;;10519431;28;20212;-80
2021/12/07 22:36:29;;;;;;;36.30;20.87;;;-3.80;99.90;;;;;;10487722;28;20255;-78
2021/12/07 22:41:52;;;;;;;35.40;19.93;;;-3.70;99.90;;;;;;10473840;28;20234;-79
2021/12/07 22:47:16;;;;;;;38.03;20.60;;;-3.70;99.90;;;;;;10519317;28;20237;-79
2021/12/07 22:52:39;;;;;;;36.73;19.60;;;-3.80;99.90;;;;;;10501106;28;20192;-80
2021/12/07 22:58:01;;;;;;;43.70;21.53;;;-3.80;99.90;;;;;;10519327;28;20209;-80
2021/12/07 23:03:27;;;;;;;30.83;18.27;;;-3.70;99.90;;;;;;10473386;28;20203;-78
2021/12/07 23:08:50;;;;;;;34.93;20.27;;;-3.50;99.90;;;;;;10505794;28;20227;-78
2021/12/07 23:14:14;;;;;;;29.73;18.57;;;-3.50;99.90;;;;;;10512136;28;20222;-80
2021/12/07 23:19:36;;;;;;;33.50;19.37;;;-3.50;99.90;;;;;;10493035;28;20397;-79
2021/12/07 23:24:58;;;;;;;37.33;18.07;;;-3.30;99.90;;;;;;10510537;28;20219;-79
2021/12/07 23:30:21;;;;;;;34.03;19.30;;;-3.50;99.90;;;;;;10526083;28;20193;-78
2021/12/07 23:35:45;;;;;;;35.50;19.03;;;-3.40;99.90;;;;;;10494199;28;20203;-80
2021/12/07 23:41:08;;;;;;;35.00;19.27;;;-3.50;99.90;;;;;;10525925;28;20227;-81
2021/12/07 23:46:30;;;;;;;36.97;20.23;;;-3.40;99.90;;;;;;10490103;28;20250;-79
2021/12/07 23:51:52;;;;;;;38.90;21.03;;;-3.40;99.90;;;;;;10507106;28;20279;-80
2021/12/07 23:57:14;;;;;;;36.57;20.20;;;-3.40;99.90;;;;;;10495932;28;20201;-80
